Portada
METAR-TAF:

METAR-TAF

Aeroports :

Pantel·leria, Itàlia

latitud: 36-49N, longitud: 011-58E, altitud: 191 m

Observació

L'informe es va fer fa 1 hora i 1 minuts, a les 11:50 UTC
Vent 21 kt del Sud/Sud-Oest
Temperatura 13°C
Humitat 82%
Pressió 1006 hPa
Visibilitat 10 km o més
Núvols disperses a una alçada de 2800 ft

METAR: LICG 131150Z 21021KT 9999 SCT028 13/10 Q1006

Hora: 13:51 (12:51 UTC)

Pronòstic

L'informe es va fer fa 1 hora i 51 minuts, a les 11:00 UTC
Pronòstic vàlid del 13 a les 12 UTC al 13 a les 21 UTC
Vent 20 kt del Oest amb ràfegues de 30 kt
Visibilitat 10 km o més
Núvols disperses a una alçada de 3000 ft
Temporalment
l' 13 a les 12 UTC al 13 a les 18 UTC
Visibilitat: 4000 m
tempesta, pluja

TAF: LICG 131100Z 1312/1321 26020G30KT 9999 SCT030 TEMPO 1312/1318 4000 TSRA

Observacions i pronòstics meteorològics de més de 4000 aeroports (METAR i TAF).

Les estacions disponibles són els punts grocs i vermells al mapa.

Posi el ratolí al punt desitjat per veure el nom de l'estació.

Feu clic per veure les observacions i els pronòstics meteorològics.

Per canviar el mapa: feu clic els botons verds amb una creu de color negre per apropar; al botó verd amb un guió per allunyar la imatge; o en les fletxes verdes per a mapes adjacents.


METAR-TAF: